createdAt,value
2022-12-07T00:03:14.265Z,48.46
2022-12-07T00:10:28.316Z,48.51
2022-12-07T00:14:28.135Z,48.44
2022-12-07T00:18:16.383Z,48.47
2022-12-07T00:25:32.123Z,48.52
2022-12-07T00:28:49.828Z,48.57
2022-12-07T00:36:27.545Z,48.47
2022-12-07T00:47:28.167Z,48.53
2022-12-07T00:55:06.429Z,48.83
2022-12-07T01:02:16.066Z,48.68
2022-12-07T01:10:01.707Z,48.64
2022-12-07T01:13:34.849Z,48.62
2022-12-07T01:21:48.180Z,48.78
2022-12-07T01:25:55.639Z,48.83
2022-12-07T01:33:30.434Z,48.79
2022-12-07T01:40:56.228Z,48.68
2022-12-07T01:48:50.763Z,48.87
2022-12-07T01:52:57.836Z,48.93
2022-12-07T02:11:10.828Z,49.27
2022-12-07T02:18:33.900Z,49.25
2022-12-07T02:22:33.256Z,49.21
2022-12-07T02:26:30.062Z,49.22
2022-12-07T02:37:47.249Z,49.26
2022-12-07T02:45:12.318Z,49.29
2022-12-07T02:49:01.807Z,49.52
2022-12-07T03:00:30.162Z,49.58
2022-12-07T03:03:49.424Z,49.67
2022-12-07T03:07:58.873Z,49.79
2022-12-07T03:11:52.949Z,49.85
2022-12-07T03:45:19.406Z,50.24
2022-12-07T03:49:25.144Z,50.29
2022-12-07T04:07:46.541Z,50.42
2022-12-07T04:11:28.025Z,50.49
2022-12-07T04:15:52.236Z,50.66
2022-12-07T04:20:03.258Z,50.71
2022-12-07T04:50:06.011Z,51.03
2022-12-07T04:53:47.580Z,51.09
2022-12-07T05:01:15.653Z,51.13
2022-12-07T05:09:57.422Z,51.06
2022-12-07T05:13:24.233Z,51.21
2022-12-07T05:17:05.775Z,51.30
2022-12-07T05:21:04.925Z,51.38
2022-12-07T05:35:30.419Z,51.70
2022-12-07T05:43:39.401Z,51.67
2022-12-07T05:51:00.490Z,51.70
2022-12-07T05:54:40.348Z,51.65
2022-12-07T06:09:43.121Z,51.69
2022-12-07T06:13:27.418Z,51.68
2022-12-07T06:17:31.017Z,51.73
2022-12-07T06:27:49.110Z,52.08
2022-12-07T06:46:10.023Z,52.06
2022-12-07T06:50:12.984Z,52.10
2022-12-07T06:54:09.773Z,52.20
2022-12-07T06:57:56.139Z,52.15
2022-12-07T07:05:24.721Z,52.17
2022-12-07T07:16:15.605Z,52.23
2022-12-07T07:24:01.608Z,52.20
2022-12-07T07:35:06.512Z,52.46
2022-12-07T07:42:31.997Z,52.47
2022-12-07T07:49:55.114Z,52.58
2022-12-07T08:00:34.627Z,52.66
2022-12-07T08:03:49.209Z,52.60
2022-12-07T08:30:22.504Z,52.75
2022-12-07T08:34:24.745Z,52.79
2022-12-07T08:37:46.132Z,52.70
2022-12-07T08:44:37.268Z,53.12
2022-12-07T09:36:28.056Z,53.18
2022-12-07T09:39:44.605Z,53.23
2022-12-07T09:43:08.152Z,53.13
2022-12-07T09:46:24.655Z,53.02
2022-12-07T09:49:49.699Z,53.05
2022-12-07T09:57:03.611Z,52.94
2022-12-07T10:00:23.494Z,52.78
2022-12-07T10:03:37.740Z,52.92
2022-12-07T10:06:55.084Z,52.95
2022-12-07T10:10:12.667Z,52.82
2022-12-07T10:13:40.723Z,52.83
2022-12-07T10:20:48.825Z,52.93
2022-12-07T10:24:30.274Z,53.04
2022-12-07T10:27:57.937Z,52.97
2022-12-07T10:31:25.737Z,53.13
2022-12-07T10:35:26.045Z,53.14
2022-12-07T10:38:43.072Z,53.01
2022-12-07T10:42:23.705Z,52.94
2022-12-07T10:46:47.653Z,52.99
2022-12-07T10:51:09.512Z,53.19
2022-12-07T10:54:48.227Z,52.74
2022-12-07T10:59:01.348Z,52.88
2022-12-07T11:14:46.656Z,53.08
2022-12-07T11:22:26.830Z,53.27
2022-12-07T13:16:29.381Z,53.41
2022-12-07T13:20:14.290Z,53.93
2022-12-07T13:23:30.910Z,54.01
2022-12-07T13:26:55.686Z,54.03
2022-12-07T13:30:39.205Z,53.92
2022-12-07T13:34:01.138Z,53.86
2022-12-07T13:37:50.410Z,53.79
2022-12-07T13:41:40.803Z,53.82
2022-12-07T13:49:07.937Z,53.93
2022-12-07T13:52:50.017Z,53.97
2022-12-07T13:56:27.458Z,54.04
2022-12-07T13:59:46.617Z,54.08
2022-12-07T14:03:22.672Z,54.17
2022-12-07T14:06:54.892Z,54.22
2022-12-07T14:10:26.420Z,54.08
2022-12-07T14:14:21.674Z,54.13
2022-12-07T14:18:02.012Z,54.21
2022-12-07T14:21:24.305Z,54.17
2022-12-07T14:28:18.240Z,54.13
2022-12-07T14:31:56.317Z,54.20
2022-12-07T14:35:43.758Z,54.20
2022-12-07T14:39:13.276Z,54.27
2022-12-07T14:46:01.782Z,54.41
2022-12-07T14:56:38.173Z,54.49
2022-12-07T15:04:02.062Z,54.63
2022-12-07T15:07:41.640Z,54.65
2022-12-07T15:11:05.683Z,54.65
2022-12-07T15:14:21.624Z,54.69
2022-12-07T15:17:48.861Z,54.73
2022-12-07T15:21:40.128Z,54.76
2022-12-07T15:25:28.846Z,54.80
2022-12-07T15:29:22.772Z,54.79
2022-12-07T15:32:59.564Z,54.81
2022-12-07T15:36:57.772Z,54.88
2022-12-07T15:40:41.739Z,54.83
2022-12-07T15:48:33.656Z,54.94
2022-12-07T15:52:17.790Z,55.13
2022-12-07T15:55:50.328Z,55.21
2022-12-07T16:07:00.377Z,55.23
2022-12-07T16:14:43.547Z,55.43
2022-12-07T16:18:13.883Z,55.47
2022-12-07T16:22:02.312Z,55.51
2022-12-07T16:36:04.961Z,55.76
2022-12-07T16:39:39.037Z,55.73
2022-12-07T16:46:55.363Z,55.79
2022-12-07T16:54:26.388Z,55.95
2022-12-07T16:58:09.420Z,55.89
2022-12-07T17:01:58.114Z,55.85
2022-12-07T17:09:45.033Z,56.23
2022-12-07T17:12:55.044Z,56.27
2022-12-07T17:16:22.054Z,56.29
2022-12-07T17:19:37.465Z,56.34
2022-12-07T17:22:52.353Z,56.39
2022-12-07T17:26:14.268Z,56.35
2022-12-07T17:29:44.901Z,56.43
2022-12-07T17:33:08.635Z,56.58
2022-12-07T17:36:35.613Z,56.70
2022-12-07T17:39:53.254Z,56.83
2022-12-07T17:43:09.654Z,56.83
2022-12-07T17:46:29.231Z,56.86
2022-12-07T17:49:44.597Z,57.02
2022-12-07T17:53:31.844Z,57.02
2022-12-07T17:57:08.420Z,57.07
2022-12-07T18:00:24.547Z,57.16
2022-12-07T18:03:33.723Z,57.13
2022-12-07T18:06:51.991Z,57.09
2022-12-07T18:09:59.449Z,57.22
2022-12-07T18:13:33.437Z,57.20
2022-12-07T18:16:44.592Z,57.40
2022-12-07T18:20:16.439Z,57.57
2022-12-07T18:27:10.987Z,57.52
2022-12-07T18:34:51.838Z,57.38
2022-12-07T18:39:07.927Z,57.36
2022-12-07T18:42:57.383Z,57.26
2022-12-07T18:50:45.081Z,57.58
2022-12-07T19:08:43.494Z,57.82
2022-12-07T19:12:23.011Z,57.86
2022-12-07T19:15:50.417Z,57.88
2022-12-07T19:19:07.964Z,57.94
2022-12-07T19:22:27.008Z,58.04
2022-12-07T19:25:51.499Z,58.08
2022-12-07T19:29:07.166Z,58.14
2022-12-07T19:32:27.646Z,58.13
2022-12-07T19:35:47.988Z,58.14
2022-12-07T19:39:27.674Z,58.15
2022-12-07T19:42:56.688Z,58.24
2022-12-07T19:46:13.231Z,58.23
2022-12-07T19:53:03.669Z,58.44
2022-12-07T19:56:36.402Z,58.41
2022-12-07T19:59:48.601Z,58.48
2022-12-07T20:03:00.793Z,58.63
2022-12-07T20:06:21.506Z,58.60
2022-12-07T20:09:36.453Z,58.63
2022-12-07T20:16:50.845Z,58.70
2022-12-07T20:20:16.652Z,58.74
2022-12-07T20:23:36.198Z,58.76
2022-12-07T20:26:56.145Z,58.76
2022-12-07T20:30:11.868Z,58.82
2022-12-07T20:33:22.580Z,58.89
2022-12-07T20:36:37.756Z,58.94
2022-12-07T20:39:45.792Z,59.10
2022-12-07T20:42:58.577Z,59.14
2022-12-07T20:46:39.575Z,59.21
2022-12-07T20:49:49.663Z,59.26
2022-12-07T20:56:45.116Z,59.38
2022-12-07T20:59:58.151Z,59.39
2022-12-07T21:03:07.447Z,59.43
2022-12-07T21:06:22.074Z,59.47
2022-12-07T21:09:38.246Z,59.49
2022-12-07T21:12:51.315Z,59.63
2022-12-07T21:16:02.445Z,59.57
2022-12-07T21:19:14.828Z,59.61
2022-12-07T21:22:28.142Z,59.63
2022-12-07T21:25:41.914Z,59.68
2022-12-07T21:28:51.681Z,59.69
2022-12-07T21:32:07.110Z,59.75
2022-12-07T21:35:18.435Z,59.85
2022-12-07T21:38:26.467Z,59.93
2022-12-07T21:41:36.025Z,59.98
2022-12-07T21:44:47.423Z,60.01
2022-12-07T21:47:59.659Z,59.91
2022-12-07T21:51:11.225Z,59.92
2022-12-07T21:54:26.203Z,59.97
2022-12-07T21:57:37.041Z,60.09
2022-12-07T22:00:52.721Z,60.06
2022-12-07T22:04:12.361Z,60.11
2022-12-07T22:07:34.901Z,60.21
2022-12-07T22:11:01.394Z,60.27
2022-12-07T22:14:29.005Z,60.36
2022-12-07T22:17:46.487Z,60.43
2022-12-07T22:20:57.644Z,60.45
2022-12-07T22:24:09.265Z,60.45
2022-12-07T22:27:20.341Z,60.42
2022-12-07T22:30:39.622Z,60.38
2022-12-07T22:33:50.620Z,60.48
2022-12-07T22:41:01.903Z,60.71
2022-12-07T22:44:26.788Z,60.77
2022-12-07T22:48:01.989Z,60.86
2022-12-07T22:51:48.927Z,60.84
2022-12-07T22:55:18.858Z,60.83
2022-12-07T22:58:59.006Z,60.90
2022-12-07T23:02:22.256Z,60.90
2022-12-07T23:06:21.237Z,60.96
2022-12-07T23:09:47.810Z,61.04
2022-12-07T23:13:43.966Z,61.11
2022-12-07T23:17:15.032Z,61.24
2022-12-07T23:20:30.188Z,61.25
2022-12-07T23:24:20.627Z,61.24
2022-12-07T23:27:57.466Z,61.20
2022-12-07T23:31:37.257Z,61.20
2022-12-07T23:35:06.695Z,61.29
2022-12-07T23:39:10.272Z,61.35
2022-12-07T23:42:56.919Z,61.37
2022-12-07T23:46:34.910Z,61.30
2022-12-07T23:50:09.635Z,61.36
2022-12-07T23:53:38.232Z,61.46
2022-12-07T23:57:12.120Z,61.52
